createdAt,value
2019-01-29T00:00:35.898Z,85.96
2019-01-29T00:03:44.469Z,85.61
2019-01-29T00:06:53.519Z,85.92
2019-01-29T00:10:02.075Z,86.02
2019-01-29T00:13:10.553Z,86.09
2019-01-29T00:16:29.372Z,86.31
2019-01-29T00:19:37.933Z,86.47
2019-01-29T00:22:46.508Z,86.46
2019-01-29T00:25:55.076Z,86.30
2019-01-29T00:29:03.941Z,86.75
2019-01-29T00:32:12.520Z,86.87
2019-01-29T00:35:21.112Z,86.97
2019-01-29T00:38:39.952Z,87.35
2019-01-29T00:41:48.804Z,87.18
2019-01-29T00:44:57.381Z,87.19
2019-01-29T00:48:06.497Z,87.24
2019-01-29T00:51:15.575Z,87.35
2019-01-29T00:54:34.420Z,87.24
2019-01-29T00:57:43.070Z,87.38
2019-01-29T01:00:51.545Z,87.69
2019-01-29T01:04:00.122Z,87.30
2019-01-29T01:07:08.747Z,87.16
2019-01-29T01:10:21.030Z,87.02
2019-01-29T01:13:29.514Z,87.10
2019-01-29T01:16:38.147Z,86.90
2019-01-29T01:19:57.043Z,86.86
2019-01-29T01:23:05.753Z,86.70
2019-01-29T01:26:14.308Z,87.17
2019-01-29T01:29:22.896Z,86.96
2019-01-29T01:32:31.444Z,86.95
2019-01-29T01:35:39.944Z,86.80
2019-01-29T01:38:58.925Z,86.50
2019-01-29T01:42:07.396Z,86.61
2019-01-29T01:45:16.094Z,87.05
2019-01-29T01:48:24.762Z,87.14
2019-01-29T01:51:33.351Z,87.17
2019-01-29T01:54:42.033Z,87.30
2019-01-29T01:57:50.703Z,87.47
2019-01-29T02:00:59.346Z,87.64
2019-01-29T02:04:18.219Z,87.16
2019-01-29T02:07:26.849Z,87.35
2019-01-29T02:10:35.430Z,87.73
2019-01-29T02:13:43.993Z,87.93
2019-01-29T02:16:52.632Z,88.09
2019-01-29T02:20:01.216Z,88.49
2019-01-29T02:23:19.950Z,88.40
2019-01-29T02:26:28.656Z,88.28
2019-01-29T02:29:37.137Z,88.40
2019-01-29T02:32:45.699Z,88.30
2019-01-29T02:35:54.171Z,88.28
2019-01-29T02:39:12.992Z,88.20
2019-01-29T02:42:21.569Z,88.25
2019-01-29T02:45:30.147Z,88.30
2019-01-29T02:48:38.818Z,87.93
2019-01-29T02:51:47.395Z,88.02
2019-01-29T02:54:55.972Z,88.32
2019-01-29T02:58:04.592Z,88.31
2019-01-29T03:01:23.500Z,88.63
2019-01-29T03:04:32.296Z,88.62
2019-01-29T03:07:41.022Z,88.70
2019-01-29T03:10:49.601Z,88.79
2019-01-29T03:13:58.152Z,88.78
2019-01-29T03:17:06.873Z,88.81
2019-01-29T03:20:16.703Z,88.74
2019-01-29T03:23:27.593Z,88.76
2019-01-29T03:26:35.542Z,88.88
2019-01-29T03:29:43.998Z,88.65
2019-01-29T03:32:52.588Z,88.84
2019-01-29T03:36:02.390Z,88.93
2019-01-29T03:39:21.298Z,89.04
2019-01-29T03:42:29.819Z,88.85
2019-01-29T03:45:38.431Z,88.65
2019-01-29T03:48:47.152Z,88.48
2019-01-29T03:51:55.732Z,88.42
2019-01-29T03:55:04.811Z,88.32
2019-01-29T03:58:13.428Z,88.47
2019-01-29T04:01:22.011Z,88.71
2019-01-29T04:04:30.582Z,88.71
2019-01-29T04:07:49.549Z,89.15
2019-01-29T04:10:58.016Z,88.76
2019-01-29T04:14:06.811Z,89.02
2019-01-29T04:17:15.499Z,88.70
2019-01-29T04:20:24.054Z,88.92
2019-01-29T04:23:32.640Z,88.53
2019-01-29T04:26:41.277Z,88.45
2019-01-29T04:30:00.104Z,89.24
2019-01-29T04:33:08.748Z,89.30
2019-01-29T04:36:17.315Z,89.40
2019-01-29T04:39:25.900Z,88.88
2019-01-29T04:42:34.477Z,88.38
2019-01-29T04:45:43.039Z,88.28
2019-01-29T04:49:01.938Z,88.28
2019-01-29T04:52:10.408Z,88.39
2019-01-29T04:55:19.422Z,88.27
2019-01-29T04:58:27.975Z,88.47
2019-01-29T05:01:36.551Z,88.22
2019-01-29T05:04:45.149Z,88.26
2019-01-29T05:07:53.729Z,87.76
2019-01-29T05:11:02.297Z,88.17
2019-01-29T05:14:21.245Z,88.31
2019-01-29T05:17:29.854Z,88.68
2019-01-29T05:20:38.439Z,88.58
2019-01-29T05:23:47.029Z,88.46
2019-01-29T05:26:55.517Z,88.82
2019-01-29T05:30:04.310Z,89.11
2019-01-29T05:33:12.889Z,88.98
2019-01-29T05:36:31.846Z,88.69
2019-01-29T05:39:40.553Z,88.30
2019-01-29T05:42:49.226Z,88.67
2019-01-29T05:45:57.811Z,88.96
2019-01-29T05:49:06.465Z,89.23
2019-01-29T05:52:14.938Z,89.16
2019-01-29T05:55:23.594Z,89.17
2019-01-29T05:58:42.458Z,89.33
2019-01-29T06:01:50.935Z,88.83
2019-01-29T06:04:59.541Z,89.02
2019-01-29T06:08:08.076Z,89.67
2019-01-29T06:11:16.653Z,89.69
2019-01-29T06:14:35.722Z,89.93
2019-01-29T06:17:44.208Z,89.78
2019-01-29T06:20:52.847Z,89.69
2019-01-29T06:24:01.433Z,89.38
2019-01-29T06:27:10.077Z,89.59
2019-01-29T06:30:20.560Z,89.67
2019-01-29T06:33:29.057Z,89.83
2019-01-29T06:36:48.010Z,89.87
2019-01-29T06:39:56.645Z,89.94
2019-01-29T06:43:05.210Z,90.07
2019-01-29T06:46:13.708Z,90.14
2019-01-29T06:49:22.337Z,90.10
2019-01-29T06:52:31.061Z,90.29
2019-01-29T06:55:39.644Z,90.15
2019-01-29T06:58:58.429Z,90.25
2019-01-29T07:02:08.247Z,90.55
2019-01-29T07:05:17.081Z,90.81
2019-01-29T07:08:25.735Z,90.30
2019-01-29T07:11:34.316Z,90.01
2019-01-29T07:14:42.988Z,89.77
2019-01-29T07:18:02.002Z,89.86
2019-01-29T07:21:11.400Z,89.31
2019-01-29T07:24:19.891Z,89.52
2019-01-29T07:27:38.833Z,89.48
2019-01-29T07:30:47.485Z,89.32
2019-01-29T07:33:56.078Z,89.08
2019-01-29T07:37:04.747Z,89.26
2019-01-29T07:40:13.580Z,89.36
2019-01-29T07:43:22.318Z,89.38
2019-01-29T07:46:30.973Z,89.80
2019-01-29T07:49:39.725Z,89.72
2019-01-29T07:52:48.217Z,89.36
2019-01-29T07:55:56.781Z,88.90
2019-01-29T07:59:15.811Z,88.56
2019-01-29T08:02:24.392Z,88.00
2019-01-29T08:05:32.998Z,88.01
2019-01-29T08:08:41.773Z,88.39
2019-01-29T08:11:50.313Z,88.42
2019-01-29T08:14:58.912Z,88.28
2019-01-29T08:18:10.109Z,88.10
2019-01-29T08:21:18.580Z,87.55
2019-01-29T08:24:27.848Z,86.71
2019-01-29T08:27:36.544Z,87.07
2019-01-29T08:30:45.141Z,87.08
2019-01-29T08:33:53.737Z,86.68
2019-01-29T08:37:02.383Z,86.53
2019-01-29T08:40:11.442Z,86.56
2019-01-29T08:43:19.934Z,86.86
2019-01-29T08:46:28.494Z,86.65
2019-01-29T08:49:37.111Z,86.92
2019-01-29T08:52:55.817Z,86.86
2019-01-29T08:56:04.552Z,86.08
2019-01-29T08:59:15.002Z,85.58
2019-01-29T09:02:23.499Z,84.64
2019-01-29T09:05:33.209Z,84.19
2019-01-29T09:08:52.195Z,83.85
2019-01-29T09:12:00.776Z,84.44
2019-01-29T09:15:12.920Z,83.82
2019-01-29T09:18:21.412Z,83.96
2019-01-29T09:21:30.004Z,83.83
2019-01-29T09:24:38.534Z,83.71
2019-01-29T09:27:47.216Z,83.53
2019-01-29T09:30:55.816Z,84.13
2019-01-29T09:34:14.731Z,83.87
2019-01-29T09:37:23.385Z,83.66
2019-01-29T09:40:31.973Z,83.65
2019-01-29T09:43:40.535Z,83.63
2019-01-29T09:46:49.210Z,84.00
2019-01-29T09:49:57.807Z,83.20
2019-01-29T09:53:06.389Z,82.57
2019-01-29T09:56:25.365Z,82.63
2019-01-29T09:59:34.015Z,82.13
2019-01-29T10:02:42.687Z,81.14
2019-01-29T10:05:51.172Z,80.49
2019-01-29T10:08:59.792Z,80.32
2019-01-29T10:12:08.385Z,79.89
2019-01-29T10:15:21.685Z,79.79
2019-01-29T10:18:40.650Z,77.58
2019-01-29T10:21:50.726Z,75.61
2019-01-29T10:24:59.293Z,73.85
2019-01-29T10:28:08.027Z,72.92
2019-01-29T10:31:16.679Z,73.82
2019-01-29T10:34:25.145Z,74.11
2019-01-29T10:37:44.005Z,74.22
2019-01-29T10:40:52.594Z,72.99
2019-01-29T10:44:01.177Z,73.23
2019-01-29T10:47:11.351Z,72.61
2019-01-29T10:50:23.923Z,72.71
2019-01-29T10:53:32.426Z,71.29
2019-01-29T10:56:41.114Z,69.89
2019-01-29T10:59:49.577Z,69.49
2019-01-29T11:02:58.281Z,69.64
2019-01-29T11:06:07.287Z,69.71
2019-01-29T11:09:15.924Z,70.72
2019-01-29T11:12:24.408Z,70.57
2019-01-29T11:15:44.090Z,69.39
2019-01-29T11:18:52.837Z,68.56
2019-01-29T11:22:01.584Z,68.84
2019-01-29T11:25:23.552Z,69.51
2019-01-29T11:28:32.133Z,69.33
2019-01-29T11:31:40.593Z,68.05
2019-01-29T11:34:49.178Z,67.08
2019-01-29T11:37:57.781Z,66.40
2019-01-29T11:41:06.648Z,63.34
2019-01-29T11:44:15.278Z,58.81
2019-01-29T11:47:23.942Z,54.05
2019-01-29T11:50:42.797Z,52.15
2019-01-29T11:53:51.418Z,48.17
2019-01-29T11:57:00.036Z,47.29
2019-01-29T12:00:13.861Z,47.03
2019-01-29T12:03:22.432Z,45.67
2019-01-29T12:06:31.107Z,45.92
2019-01-29T12:09:39.718Z,47.98
2019-01-29T12:12:48.449Z,49.16
2019-01-29T12:15:57.049Z,50.44
2019-01-29T12:19:15.817Z,53.07
2019-01-29T12:22:24.295Z,54.27
2019-01-29T12:25:32.967Z,56.61
2019-01-29T12:28:41.646Z,58.29
2019-01-29T12:31:50.220Z,60.98
2019-01-29T12:34:58.843Z,61.62
2019-01-29T12:38:07.870Z,62.39
2019-01-29T12:41:16.437Z,62.98
2019-01-29T12:44:25.030Z,64.13
2019-01-29T12:47:44.046Z,65.47
2019-01-29T12:50:59.937Z,66.66
2019-01-29T12:54:08.727Z,67.38
2019-01-29T12:57:17.396Z,67.10
2019-01-29T13:00:28.383Z,66.24
2019-01-29T13:03:36.898Z,66.53
2019-01-29T13:06:45.526Z,64.80
2019-01-29T13:09:54.011Z,65.04
2019-01-29T13:13:13.469Z,65.10
2019-01-29T13:16:32.770Z,63.77
2019-01-29T13:19:41.357Z,63.00
2019-01-29T13:22:49.973Z,63.21
2019-01-29T13:26:00.475Z,62.67
2019-01-29T13:29:12.096Z,63.93
2019-01-29T13:32:20.671Z,63.68
2019-01-29T13:35:32.590Z,62.56
2019-01-29T13:38:51.709Z,62.73
2019-01-29T13:42:01.981Z,63.36
2019-01-29T13:45:11.892Z,63.69
2019-01-29T13:48:20.718Z,64.24
2019-01-29T13:51:29.292Z,63.84
2019-01-29T13:54:37.891Z,64.61
2019-01-29T13:57:46.538Z,65.86
2019-01-29T14:00:55.132Z,66.49
2019-01-29T14:04:16.054Z,67.88
2019-01-29T14:07:24.577Z,68.67
2019-01-29T14:10:33.210Z,70.28
2019-01-29T14:13:41.780Z,70.19
2019-01-29T14:16:50.410Z,70.37
2019-01-29T14:19:58.973Z,71.18
2019-01-29T14:23:17.993Z,71.03
2019-01-29T14:26:26.555Z,70.87
2019-01-29T14:29:36.480Z,70.63
2019-01-29T14:32:45.049Z,70.90
2019-01-29T14:35:53.647Z,71.03
2019-01-29T14:39:38.973Z,70.65
2019-01-29T14:42:50.165Z,70.39
2019-01-29T14:45:59.360Z,70.15
2019-01-29T14:49:18.220Z,70.64
2019-01-29T14:52:26.873Z,71.72
2019-01-29T14:55:35.459Z,71.98
2019-01-29T14:58:45.396Z,72.06
2019-01-29T15:01:53.992Z,72.55
2019-01-29T15:05:12.942Z,73.04
2019-01-29T15:08:21.630Z,73.33
2019-01-29T15:11:30.270Z,72.85
2019-01-29T15:14:38.797Z,73.29
2019-01-29T15:18:06.453Z,73.96
2019-01-29T15:21:14.997Z,73.99
2019-01-29T15:24:33.731Z,74.29
2019-01-29T15:27:42.439Z,74.57
2019-01-29T15:30:51.346Z,74.54
2019-01-29T15:33:59.907Z,74.87
2019-01-29T15:37:08.502Z,74.36
2019-01-29T15:40:18.524Z,74.94
2019-01-29T15:43:26.978Z,74.92
2019-01-29T15:46:46.041Z,75.15
2019-01-29T15:49:54.702Z,75.62
2019-01-29T15:53:03.174Z,75.62
2019-01-29T15:56:11.720Z,75.68
2019-01-29T15:59:21.749Z,74.84
2019-01-29T16:02:41.806Z,75.53
2019-01-29T16:05:50.357Z,75.23
2019-01-29T16:08:59.151Z,75.67
2019-01-29T16:12:07.729Z,75.82
2019-01-29T16:15:18.595Z,76.01
2019-01-29T16:18:27.107Z,75.88
2019-01-29T16:21:35.676Z,75.67
2019-01-29T16:24:44.177Z,76.25
2019-01-29T16:28:03.136Z,76.42
2019-01-29T16:31:11.696Z,76.14
2019-01-29T16:34:20.254Z,76.79
2019-01-29T16:37:28.865Z,76.45
2019-01-29T16:40:38.161Z,76.28
2019-01-29T16:43:46.616Z,76.37
2019-01-29T16:46:55.222Z,76.99
2019-01-29T16:50:03.951Z,76.69
2019-01-29T16:53:12.585Z,77.32
2019-01-29T16:56:21.340Z,76.96
2019-01-29T16:59:29.961Z,77.85
2019-01-29T17:02:48.829Z,78.61
2019-01-29T17:05:57.371Z,78.48
2019-01-29T17:09:10.757Z,78.09
2019-01-29T17:12:19.195Z,78.49
2019-01-29T17:15:29.609Z,78.94
2019-01-29T17:18:38.187Z,79.31
2019-01-29T17:21:56.941Z,79.27
2019-01-29T17:25:06.387Z,79.69
2019-01-29T17:28:25.275Z,79.51
2019-01-29T17:31:34.979Z,79.85
2019-01-29T17:34:43.540Z,79.85
2019-01-29T17:37:52.038Z,80.11
2019-01-29T17:41:10.915Z,80.22
2019-01-29T17:44:19.494Z,80.20
2019-01-29T17:47:28.111Z,80.02
2019-01-29T17:50:38.946Z,80.06
2019-01-29T17:53:47.494Z,79.85
2019-01-29T17:56:55.960Z,79.97
2019-01-29T18:00:05.594Z,79.62
2019-01-29T18:03:14.273Z,79.69
2019-01-29T18:06:22.814Z,79.56
2019-01-29T18:09:31.281Z,80.09
2019-01-29T18:12:39.837Z,80.31
2019-01-29T18:15:48.334Z,80.25
2019-01-29T18:19:07.322Z,80.13
2019-01-29T18:22:15.978Z,79.88
2019-01-29T18:25:24.771Z,80.76
2019-01-29T18:28:33.377Z,80.88
2019-01-29T18:31:41.985Z,80.87
2019-01-29T18:34:50.557Z,80.67
2019-01-29T18:37:59.322Z,80.91
2019-01-29T18:41:08.106Z,80.79
2019-01-29T18:44:16.578Z,80.62
2019-01-29T18:47:35.438Z,80.68
2019-01-29T18:50:44.024Z,81.08
2019-01-29T18:53:53.695Z,81.39
2019-01-29T18:57:02.401Z,81.47
2019-01-29T19:00:18.135Z,81.65
2019-01-29T19:03:26.580Z,81.53
2019-01-29T19:06:35.081Z,81.76
2019-01-29T19:09:53.986Z,82.50
2019-01-29T19:13:02.456Z,82.75
2019-01-29T19:16:09.536Z,82.39
2019-01-29T19:19:18.073Z,83.30
2019-01-29T19:22:26.644Z,83.18
2019-01-29T19:25:35.239Z,83.12
2019-01-29T19:28:54.174Z,83.42
2019-01-29T19:32:02.743Z,83.66
2019-01-29T19:35:11.315Z,83.78
2019-01-29T19:38:20.091Z,84.14
2019-01-29T19:41:28.658Z,84.33
2019-01-29T19:44:37.095Z,84.42
2019-01-29T19:47:57.169Z,84.75
2019-01-29T19:51:05.664Z,84.34
2019-01-29T19:54:14.205Z,84.60
2019-01-29T19:57:24.906Z,84.47
2019-01-29T20:00:36.789Z,84.73
2019-01-29T20:03:45.235Z,84.80
2019-01-29T20:07:04.766Z,84.89
2019-01-29T20:10:23.868Z,85.10
2019-01-29T20:13:32.329Z,84.81
2019-01-29T20:16:40.912Z,84.84
2019-01-29T20:19:49.459Z,85.01
2019-01-29T20:23:07.354Z,84.91
2019-01-29T20:26:08.311Z,85.23
2019-01-29T20:29:16.859Z,84.95
2019-01-29T20:32:35.626Z,84.90
2019-01-29T20:35:44.139Z,85.90
2019-01-29T20:38:52.718Z,86.31
2019-01-29T20:42:01.421Z,85.89
2019-01-29T20:45:11.576Z,85.80
2019-01-29T20:48:30.293Z,86.71
2019-01-29T20:51:38.877Z,86.80
2019-01-29T20:54:47.423Z,86.30
2019-01-29T20:57:56.132Z,86.38
2019-01-29T21:01:09.658Z,86.38
2019-01-29T21:04:19.576Z,86.54
2019-01-29T21:07:38.522Z,86.60
2019-01-29T21:10:47.080Z,86.76
2019-01-29T21:13:56.055Z,86.88
2019-01-29T21:17:04.820Z,86.86
2019-01-29T21:20:17.728Z,86.74
2019-01-29T21:23:26.212Z,86.96
2019-01-29T21:26:44.981Z,86.90
2019-01-29T21:29:53.532Z,86.55
2019-01-29T21:33:02.008Z,86.46
2019-01-29T21:36:10.468Z,86.55
2019-01-29T21:39:29.110Z,86.38
2019-01-29T21:42:37.569Z,86.69
2019-01-29T21:45:46.072Z,86.92
2019-01-29T21:48:54.765Z,86.85
2019-01-29T21:52:03.216Z,86.93
2019-01-29T21:55:22.090Z,86.95
2019-01-29T21:58:30.680Z,86.81
2019-01-29T22:01:39.211Z,86.75
2019-01-29T22:04:48.305Z,87.18
2019-01-29T22:07:57.675Z,87.02
2019-01-29T22:11:16.629Z,86.88
2019-01-29T22:14:25.097Z,86.90
2019-01-29T22:17:33.642Z,86.96
2019-01-29T22:20:43.254Z,87.00
2019-01-29T22:23:51.738Z,87.61
2019-01-29T22:27:00.417Z,87.79
2019-01-29T22:30:19.000Z,87.88
2019-01-29T22:33:27.431Z,87.84
2019-01-29T22:36:36.056Z,87.74
2019-01-29T22:39:44.523Z,87.68
2019-01-29T22:43:03.363Z,87.96
2019-01-29T22:46:12.085Z,87.69
2019-01-29T22:49:20.739Z,87.57
2019-01-29T22:52:29.294Z,87.82
2019-01-29T22:55:37.875Z,87.70
2019-01-29T22:58:46.350Z,88.42
2019-01-29T23:01:55.010Z,88.34
2019-01-29T23:05:13.750Z,88.14
2019-01-29T23:08:22.354Z,88.03
2019-01-29T23:11:30.914Z,88.39
2019-01-29T23:14:39.477Z,88.16
2019-01-29T23:17:48.218Z,88.24
2019-01-29T23:20:56.784Z,88.17
2019-01-29T23:24:15.590Z,88.27
2019-01-29T23:27:24.249Z,88.57
2019-01-29T23:30:32.814Z,88.33
2019-01-29T23:33:41.253Z,88.27
2019-01-29T23:36:49.914Z,88.56
2019-01-29T23:39:58.459Z,88.54
2019-01-29T23:43:17.242Z,88.49
2019-01-29T23:46:25.828Z,88.25
2019-01-29T23:49:34.390Z,88.45
2019-01-29T23:52:42.856Z,88.58
2019-01-29T23:55:51.406Z,88.29
2019-01-29T23:58:59.057Z,88.47
